sensor_id;sensor_type;location;lat;lon;timestamp;P1;durP1;ratioP1;P2;durP2;ratioP2
60722;SDS011;46574;52.818;6.516;2022-07-23T00:01:30;4.18;;;3.78;;
60722;SDS011;46574;52.818;6.516;2022-07-23T00:03:56;4.35;;;3.60;;
60722;SDS011;46574;52.818;6.516;2022-07-23T00:06:22;4.72;;;3.45;;
60722;SDS011;46574;52.818;6.516;2022-07-23T00:08:48;4.38;;;4.05;;
60722;SDS011;46574;52.818;6.516;2022-07-23T00:11:14;3.88;;;3.47;;
60722;SDS011;46574;52.818;6.516;2022-07-23T00:13:40;4.07;;;3.40;;
60722;SDS011;46574;52.818;6.516;2022-07-23T00:16:06;3.90;;;3.60;;
60722;SDS011;46574;52.818;6.516;2022-07-23T00:18:32;4.47;;;3.40;;
60722;SDS011;46574;52.818;6.516;2022-07-23T00:20:58;4.18;;;3.78;;
60722;SDS011;46574;52.818;6.516;2022-07-23T00:23:23;5.75;;;4.32;;
60722;SDS011;46574;52.818;6.516;2022-07-23T00:25:50;3.50;;;3.20;;
60722;SDS011;46574;52.818;6.516;2022-07-23T00:28:16;4.40;;;3.72;;
60722;SDS011;46574;52.818;6.516;2022-07-23T00:30:43;4.57;;;3.88;;
60722;SDS011;46574;52.818;6.516;2022-07-23T00:33:09;4.60;;;4.15;;
60722;SDS011;46574;52.818;6.516;2022-07-23T00:35:37;4.55;;;3.92;;
60722;SDS011;46574;52.818;6.516;2022-07-23T00:38:05;5.00;;;3.88;;
60722;SDS011;46574;52.818;6.516;2022-07-23T00:40:32;3.88;;;3.47;;
60722;SDS011;46574;52.818;6.516;2022-07-23T00:42:59;4.03;;;3.65;;
60722;SDS011;46574;52.818;6.516;2022-07-23T00:45:25;4.38;;;3.97;;
60722;SDS011;46574;52.818;6.516;2022-07-23T00:47:51;4.50;;;3.30;;
60722;SDS011;46574;52.818;6.516;2022-07-23T00:50:17;3.97;;;3.65;;
60722;SDS011;46574;52.818;6.516;2022-07-23T00:52:43;4.45;;;3.28;;
60722;SDS011;46574;52.818;6.516;2022-07-23T00:55:09;3.95;;;3.63;;
60722;SDS011;46574;52.818;6.516;2022-07-23T00:57:36;4.05;;;3.65;;
60722;SDS011;46574;52.818;6.516;2022-07-23T01:00:06;3.92;;;3.53;;
60722;SDS011;46574;52.818;6.516;2022-07-23T01:02:34;4.10;;;3.33;;
60722;SDS011;46574;52.818;6.516;2022-07-23T01:05:00;4.15;;;3.65;;
60722;SDS011;46574;52.818;6.516;2022-07-23T01:07:25;3.90;;;3.25;;
60722;SDS011;46574;52.818;6.516;2022-07-23T01:09:51;5.95;;;4.88;;
60722;SDS011;46574;52.818;6.516;2022-07-23T01:12:18;5.03;;;4.43;;
60722;SDS011;46574;52.818;6.516;2022-07-23T01:14:43;4.20;;;3.80;;
60722;SDS011;46574;52.818;6.516;2022-07-23T01:17:09;5.13;;;3.65;;
60722;SDS011;46574;52.818;6.516;2022-07-23T01:19:35;4.40;;;3.72;;
60722;SDS011;46574;52.818;6.516;2022-07-23T01:22:04;4.55;;;4.15;;
60722;SDS011;46574;52.818;6.516;2022-07-23T01:24:30;4.13;;;3.38;;
60722;SDS011;46574;52.818;6.516;2022-07-23T01:26:56;3.78;;;3.38;;
60722;SDS011;46574;52.818;6.516;2022-07-23T01:29:22;4.30;;;3.90;;
60722;SDS011;46574;52.818;6.516;2022-07-23T01:31:47;5.85;;;4.15;;
60722;SDS011;46574;52.818;6.516;2022-07-23T01:34:13;3.95;;;3.60;;
60722;SDS011;46574;52.818;6.516;2022-07-23T01:36:39;4.35;;;3.60;;
60722;SDS011;46574;52.818;6.516;2022-07-23T01:39:06;4.72;;;3.33;;
60722;SDS011;46574;52.818;6.516;2022-07-23T01:41:32;5.63;;;3.90;;
60722;SDS011;46574;52.818;6.516;2022-07-23T01:43:58;5.45;;;3.25;;
60722;SDS011;46574;52.818;6.516;2022-07-23T01:46:24;4.18;;;3.78;;
60722;SDS011;46574;52.818;6.516;2022-07-23T01:48:50;4.20;;;3.80;;
60722;SDS011;46574;52.818;6.516;2022-07-23T01:51:15;4.43;;;3.20;;
60722;SDS011;46574;52.818;6.516;2022-07-23T01:53:41;4.10;;;3.70;;
60722;SDS011;46574;52.818;6.516;2022-07-23T01:56:07;4.30;;;3.25;;
60722;SDS011;46574;52.818;6.516;2022-07-23T01:58:32;5.18;;;4.20;;
60722;SDS011;46574;52.818;6.516;2022-07-23T02:00:58;5.03;;;4.40;;
60722;SDS011;46574;52.818;6.516;2022-07-23T02:03:24;5.25;;;4.05;;
60722;SDS011;46574;52.818;6.516;2022-07-23T02:05:50;4.75;;;4.03;;
60722;SDS011;46574;52.818;6.516;2022-07-23T02:08:16;3.40;;;3.10;;
60722;SDS011;46574;52.818;6.516;2022-07-23T02:10:42;4.70;;;4.30;;
60722;SDS011;46574;52.818;6.516;2022-07-23T02:13:08;4.47;;;4.03;;
60722;SDS011;46574;52.818;6.516;2022-07-23T02:15:34;3.90;;;3.33;;
60722;SDS011;46574;52.818;6.516;2022-07-23T02:18:00;6.38;;;4.47;;
60722;SDS011;46574;52.818;6.516;2022-07-23T02:20:26;6.05;;;4.63;;
60722;SDS011;46574;52.818;6.516;2022-07-23T02:22:51;4.85;;;3.72;;
60722;SDS011;46574;52.818;6.516;2022-07-23T02:25:17;3.60;;;3.28;;
60722;SDS011;46574;52.818;6.516;2022-07-23T02:27:43;5.13;;;4.63;;
60722;SDS011;46574;52.818;6.516;2022-07-23T02:30:09;3.38;;;3.08;;
60722;SDS011;46574;52.818;6.516;2022-07-23T02:32:35;3.47;;;3.17;;
60722;SDS011;46574;52.818;6.516;2022-07-23T02:35:01;4.40;;;3.97;;
60722;SDS011;46574;52.818;6.516;2022-07-23T02:37:28;4.68;;;3.90;;
60722;SDS011;46574;52.818;6.516;2022-07-23T02:39:54;4.43;;;3.70;;
60722;SDS011;46574;52.818;6.516;2022-07-23T02:42:20;4.38;;;3.72;;
60722;SDS011;46574;52.818;6.516;2022-07-23T02:44:46;3.88;;;3.58;;
60722;SDS011;46574;52.818;6.516;2022-07-23T02:47:12;5.75;;;3.78;;
60722;SDS011;46574;52.818;6.516;2022-07-23T02:49:37;3.92;;;3.20;;
60722;SDS011;46574;52.818;6.516;2022-07-23T02:52:03;5.13;;;3.80;;
60722;SDS011;46574;52.818;6.516;2022-07-23T02:54:29;5.13;;;4.45;;
60722;SDS011;46574;52.818;6.516;2022-07-23T02:56:55;4.20;;;3.60;;
60722;SDS011;46574;52.818;6.516;2022-07-23T02:59:20;4.75;;;4.10;;
60722;SDS011;46574;52.818;6.516;2022-07-23T03:01:46;4.40;;;4.00;;
60722;SDS011;46574;52.818;6.516;2022-07-23T03:04:12;5.72;;;4.78;;
60722;SDS011;46574;52.818;6.516;2022-07-23T03:06:38;5.20;;;4.25;;
60722;SDS011;46574;52.818;6.516;2022-07-23T03:09:04;3.83;;;3.50;;
60722;SDS011;46574;52.818;6.516;2022-07-23T03:11:30;4.45;;;3.45;;
60722;SDS011;46574;52.818;6.516;2022-07-23T03:13:55;5.57;;;4.60;;
60722;SDS011;46574;52.818;6.516;2022-07-23T03:16:21;6.03;;;5.05;;
60722;SDS011;46574;52.818;6.516;2022-07-23T03:18:47;4.47;;;4.07;;
60722;SDS011;46574;52.818;6.516;2022-07-23T03:21:12;3.80;;;3.40;;
60722;SDS011;46574;52.818;6.516;2022-07-23T03:23:38;4.43;;;4.03;;
60722;SDS011;46574;52.818;6.516;2022-07-23T03:26:04;6.05;;;4.65;;
60722;SDS011;46574;52.818;6.516;2022-07-23T03:28:30;4.55;;;3.80;;
60722;SDS011;46574;52.818;6.516;2022-07-23T03:30:56;5.35;;;3.92;;
60722;SDS011;46574;52.818;6.516;2022-07-23T03:33:22;3.95;;;3.42;;
60722;SDS011;46574;52.818;6.516;2022-07-23T03:35:48;4.53;;;3.65;;
60722;SDS011;46574;52.818;6.516;2022-07-23T03:38:14;3.65;;;3.10;;
60722;SDS011;46574;52.818;6.516;2022-07-23T03:40:40;4.13;;;3.45;;
60722;SDS011;46574;52.818;6.516;2022-07-23T03:43:06;3.10;;;2.80;;
60722;SDS011;46574;52.818;6.516;2022-07-23T03:45:32;3.50;;;3.20;;
60722;SDS011;46574;52.818;6.516;2022-07-23T03:47:58;3.10;;;2.80;;
60722;SDS011;46574;52.818;6.516;2022-07-23T03:50:23;3.05;;;2.85;;
60722;SDS011;46574;52.818;6.516;2022-07-23T03:52:49;3.67;;;3.00;;
60722;SDS011;46574;52.818;6.516;2022-07-23T03:55:15;3.38;;;3.08;;
60722;SDS011;46574;52.818;6.516;2022-07-23T03:57:41;3.28;;;2.45;;
60722;SDS011;46574;52.818;6.516;2022-07-23T04:00:08;2.47;;;2.28;;
60722;SDS011;46574;52.818;6.516;2022-07-23T04:02:36;2.25;;;2.05;;
60722;SDS011;46574;52.818;6.516;2022-07-23T04:05:02;2.88;;;2.67;;
60722;SDS011;46574;52.818;6.516;2022-07-23T04:07:29;2.60;;;2.40;;
60722;SDS011;46574;52.818;6.516;2022-07-23T04:09:55;3.58;;;3.25;;
60722;SDS011;46574;52.818;6.516;2022-07-23T04:12:21;3.65;;;2.50;;
60722;SDS011;46574;52.818;6.516;2022-07-23T04:14:46;3.60;;;3.30;;
60722;SDS011;46574;52.818;6.516;2022-07-23T04:17:12;5.50;;;4.22;;
60722;SDS011;46574;52.818;6.516;2022-07-23T04:19:38;3.33;;;3.03;;
60722;SDS011;46574;52.818;6.516;2022-07-23T04:22:09;4.35;;;2.90;;
60722;SDS011;46574;52.818;6.516;2022-07-23T04:24:35;2.70;;;2.50;;
60722;SDS011;46574;52.818;6.516;2022-07-23T04:27:02;2.55;;;2.35;;
60722;SDS011;46574;52.818;6.516;2022-07-23T04:29:28;2.50;;;1.95;;
60722;SDS011;46574;52.818;6.516;2022-07-23T04:31:53;3.65;;;2.40;;
60722;SDS011;46574;52.818;6.516;2022-07-23T04:34:19;2.60;;;2.15;;
60722;SDS011;46574;52.818;6.516;2022-07-23T04:36:45;2.95;;;2.65;;
60722;SDS011;46574;52.818;6.516;2022-07-23T04:39:10;3.78;;;2.65;;
60722;SDS011;46574;52.818;6.516;2022-07-23T04:41:36;3.75;;;2.80;;
60722;SDS011;46574;52.818;6.516;2022-07-23T04:44:02;3.42;;;2.90;;
60722;SDS011;46574;52.818;6.516;2022-07-23T04:46:28;3.45;;;2.97;;
60722;SDS011;46574;52.818;6.516;2022-07-23T04:48:54;2.50;;;2.20;;
60722;SDS011;46574;52.818;6.516;2022-07-23T04:51:19;2.65;;;2.45;;
60722;SDS011;46574;52.818;6.516;2022-07-23T04:53:45;5.50;;;2.63;;
60722;SDS011;46574;52.818;6.516;2022-07-23T04:56:11;2.42;;;2.22;;
60722;SDS011;46574;52.818;6.516;2022-07-23T04:58:37;2.85;;;2.45;;
60722;SDS011;46574;52.818;6.516;2022-07-23T05:01:02;2.92;;;2.20;;
60722;SDS011;46574;52.818;6.516;2022-07-23T05:03:28;3.65;;;2.13;;
60722;SDS011;46574;52.818;6.516;2022-07-23T05:05:54;3.42;;;2.88;;
60722;SDS011;46574;52.818;6.516;2022-07-23T05:08:20;4.28;;;3.00;;
60722;SDS011;46574;52.818;6.516;2022-07-23T05:10:45;4.75;;;3.17;;
60722;SDS011;46574;52.818;6.516;2022-07-23T05:13:11;5.82;;;3.85;;
60722;SDS011;46574;52.818;6.516;2022-07-23T05:15:39;4.35;;;3.40;;
60722;SDS011;46574;52.818;6.516;2022-07-23T05:18:04;5.20;;;3.80;;
60722;SDS011;46574;52.818;6.516;2022-07-23T05:20:30;6.70;;;4.30;;
60722;SDS011;46574;52.818;6.516;2022-07-23T05:22:55;6.78;;;5.05;;
60722;SDS011;46574;52.818;6.516;2022-07-23T05:25:21;6.25;;;5.63;;
60722;SDS011;46574;52.818;6.516;2022-07-23T05:27:47;5.68;;;4.78;;
60722;SDS011;46574;52.818;6.516;2022-07-23T05:30:12;6.03;;;4.40;;
60722;SDS011;46574;52.818;6.516;2022-07-23T05:32:38;9.13;;;5.30;;
60722;SDS011;46574;52.818;6.516;2022-07-23T05:35:04;5.28;;;4.45;;
60722;SDS011;46574;52.818;6.516;2022-07-23T05:37:31;5.40;;;4.70;;
60722;SDS011;46574;52.818;6.516;2022-07-23T05:40:00;8.63;;;5.53;;
60722;SDS011;46574;52.818;6.516;2022-07-23T05:42:27;8.35;;;5.50;;
60722;SDS011;46574;52.818;6.516;2022-07-23T05:44:52;8.27;;;5.60;;
60722;SDS011;46574;52.818;6.516;2022-07-23T05:47:18;5.57;;;4.95;;
60722;SDS011;46574;52.818;6.516;2022-07-23T05:49:43;6.97;;;5.80;;
60722;SDS011;46574;52.818;6.516;2022-07-23T05:52:09;6.22;;;4.95;;
60722;SDS011;46574;52.818;6.516;2022-07-23T05:54:35;6.00;;;5.28;;
60722;SDS011;46574;52.818;6.516;2022-07-23T05:57:00;5.75;;;5.03;;
60722;SDS011;46574;52.818;6.516;2022-07-23T05:59:26;7.25;;;4.90;;
60722;SDS011;46574;52.818;6.516;2022-07-23T06:01:52;7.55;;;5.18;;
60722;SDS011;46574;52.818;6.516;2022-07-23T06:04:17;7.97;;;5.82;;
60722;SDS011;46574;52.818;6.516;2022-07-23T06:06:43;7.07;;;5.30;;
60722;SDS011;46574;52.818;6.516;2022-07-23T06:09:09;7.07;;;5.30;;
60722;SDS011;46574;52.818;6.516;2022-07-23T06:11:38;6.38;;;4.90;;
60722;SDS011;46574;52.818;6.516;2022-07-23T06:14:04;7.35;;;6.28;;
60722;SDS011;46574;52.818;6.516;2022-07-23T06:16:29;8.10;;;6.22;;
60722;SDS011;46574;52.818;6.516;2022-07-23T06:18:55;7.43;;;6.18;;
60722;SDS011;46574;52.818;6.516;2022-07-23T06:21:21;5.90;;;5.30;;
60722;SDS011;46574;52.818;6.516;2022-07-23T06:23:46;13.10;;;11.43;;
60722;SDS011;46574;52.818;6.516;2022-07-23T06:26:12;11.32;;;9.25;;
60722;SDS011;46574;52.818;6.516;2022-07-23T06:28:37;8.85;;;7.95;;
60722;SDS011;46574;52.818;6.516;2022-07-23T06:31:03;8.80;;;7.90;;
60722;SDS011;46574;52.818;6.516;2022-07-23T06:33:29;6.78;;;6.13;;
60722;SDS011;46574;52.818;6.516;2022-07-23T06:35:54;7.13;;;6.43;;
60722;SDS011;46574;52.818;6.516;2022-07-23T06:38:20;7.82;;;5.75;;
60722;SDS011;46574;52.818;6.516;2022-07-23T06:40:45;5.85;;;5.32;;
60722;SDS011;46574;52.818;6.516;2022-07-23T06:43:11;8.30;;;5.75;;
60722;SDS011;46574;52.818;6.516;2022-07-23T06:45:37;6.53;;;4.72;;
60722;SDS011;46574;52.818;6.516;2022-07-23T06:48:02;6.38;;;4.70;;
60722;SDS011;46574;52.818;6.516;2022-07-23T06:50:28;4.88;;;4.00;;
60722;SDS011;46574;52.818;6.516;2022-07-23T06:52:54;5.65;;;3.65;;
60722;SDS011;46574;52.818;6.516;2022-07-23T06:55:21;4.00;;;3.08;;
60722;SDS011;46574;52.818;6.516;2022-07-23T06:57:46;5.45;;;3.35;;
60722;SDS011;46574;52.818;6.516;2022-07-23T07:00:12;5.47;;;3.70;;
60722;SDS011;46574;52.818;6.516;2022-07-23T07:02:38;4.93;;;3.00;;
60722;SDS011;46574;52.818;6.516;2022-07-23T07:05:04;3.03;;;2.42;;
60722;SDS011;46574;52.818;6.516;2022-07-23T07:07:30;4.55;;;2.30;;
60722;SDS011;46574;52.818;6.516;2022-07-23T07:09:55;3.72;;;2.30;;
60722;SDS011;46574;52.818;6.516;2022-07-23T07:12:21;3.17;;;1.80;;
60722;SDS011;46574;52.818;6.516;2022-07-23T07:14:46;4.53;;;2.30;;
60722;SDS011;46574;52.818;6.516;2022-07-23T07:17:12;2.17;;;2.08;;
60722;SDS011;46574;52.818;6.516;2022-07-23T07:19:37;4.20;;;2.00;;
60722;SDS011;46574;52.818;6.516;2022-07-23T07:22:03;2.00;;;1.45;;
60722;SDS011;46574;52.818;6.516;2022-07-23T07:24:29;3.13;;;1.58;;
60722;SDS011;46574;52.818;6.516;2022-07-23T07:26:54;1.73;;;1.60;;
60722;SDS011;46574;52.818;6.516;2022-07-23T07:29:20;1.85;;;1.50;;
60722;SDS011;46574;52.818;6.516;2022-07-23T07:31:46;2.97;;;1.83;;
60722;SDS011;46574;52.818;6.516;2022-07-23T07:34:11;2.65;;;1.70;;
60722;SDS011;46574;52.818;6.516;2022-07-23T07:36:37;1.90;;;1.80;;
60722;SDS011;46574;52.818;6.516;2022-07-23T07:39:03;1.50;;;1.40;;
60722;SDS011;46574;52.818;6.516;2022-07-23T07:41:30;1.73;;;1.30;;
60722;SDS011;46574;52.818;6.516;2022-07-23T07:43:56;1.70;;;1.60;;
60722;SDS011;46574;52.818;6.516;2022-07-23T07:46:21;1.75;;;1.58;;
60722;SDS011;46574;52.818;6.516;2022-07-23T07:48:49;1.77;;;1.40;;
60722;SDS011;46574;52.818;6.516;2022-07-23T07:51:15;1.45;;;1.35;;
60722;SDS011;46574;52.818;6.516;2022-07-23T07:53:41;1.45;;;1.20;;
60722;SDS011;46574;52.818;6.516;2022-07-23T07:56:06;2.38;;;1.33;;
60722;SDS011;46574;52.818;6.516;2022-07-23T07:58:32;2.65;;;1.20;;
60722;SDS011;46574;52.818;6.516;2022-07-23T08:00:58;2.35;;;1.42;;
60722;SDS011;46574;52.818;6.516;2022-07-23T08:03:23;1.88;;;1.30;;
60722;SDS011;46574;52.818;6.516;2022-07-23T08:05:49;1.90;;;1.75;;
60722;SDS011;46574;52.818;6.516;2022-07-23T08:08:15;1.20;;;1.10;;
60722;SDS011;46574;52.818;6.516;2022-07-23T08:10:41;1.92;;;1.10;;
60722;SDS011;46574;52.818;6.516;2022-07-23T08:13:07;2.33;;;1.30;;
60722;SDS011;46574;52.818;6.516;2022-07-23T08:15:32;3.55;;;1.20;;
60722;SDS011;46574;52.818;6.516;2022-07-23T08:17:58;3.20;;;1.50;;
60722;SDS011;46574;52.818;6.516;2022-07-23T08:20:24;3.80;;;1.50;;
60722;SDS011;46574;52.818;6.516;2022-07-23T08:25:25;1.65;;;1.23;;
60722;SDS011;46574;52.818;6.516;2022-07-23T08:27:53;1.98;;;1.17;;
60722;SDS011;46574;52.818;6.516;2022-07-23T08:30:20;1.98;;;1.17;;
60722;SDS011;46574;52.818;6.516;2022-07-23T08:32:51;1.52;;;1.10;;
60722;SDS011;46574;52.818;6.516;2022-07-23T08:35:27;1.35;;;1.25;;
60722;SDS011;46574;52.818;6.516;2022-07-23T08:38:01;1.33;;;1.20;;
60722;SDS011;46574;52.818;6.516;2022-07-23T08:40:30;1.23;;;1.00;;
60722;SDS011;46574;52.818;6.516;2022-07-23T08:42:57;1.98;;;1.13;;
60722;SDS011;46574;52.818;6.516;2022-07-23T08:45:24;1.70;;;1.20;;
60722;SDS011;46574;52.818;6.516;2022-07-23T08:47:51;2.28;;;1.10;;
60722;SDS011;46574;52.818;6.516;2022-07-23T08:50:21;1.70;;;0.90;;
60722;SDS011;46574;52.818;6.516;2022-07-23T08:52:49;1.23;;;1.10;;
60722;SDS011;46574;52.818;6.516;2022-07-23T08:55:16;2.92;;;1.23;;
60722;SDS011;46574;52.818;6.516;2022-07-23T08:57:42;1.33;;;0.93;;
60722;SDS011;46574;52.818;6.516;2022-07-23T09:00:08;1.75;;;0.98;;
60722;SDS011;46574;52.818;6.516;2022-07-23T09:02:41;2.05;;;0.90;;
60722;SDS011;46574;52.818;6.516;2022-07-23T09:05:08;1.38;;;0.90;;
60722;SDS011;46574;52.818;6.516;2022-07-23T09:07:36;0.90;;;0.85;;
60722;SDS011;46574;52.818;6.516;2022-07-23T09:10:06;0.80;;;0.80;;
60722;SDS011;46574;52.818;6.516;2022-07-23T09:12:34;1.10;;;1.00;;
60722;SDS011;46574;52.818;6.516;2022-07-23T09:15:03;1.40;;;0.57;;
60722;SDS011;46574;52.818;6.516;2022-07-23T09:17:36;0.73;;;0.70;;
60722;SDS011;46574;52.818;6.516;2022-07-23T09:20:07;1.20;;;0.80;;
60722;SDS011;46574;52.818;6.516;2022-07-23T09:22:38;0.90;;;0.90;;
60722;SDS011;46574;52.818;6.516;2022-07-23T09:25:10;2.40;;;0.90;;
60722;SDS011;46574;52.818;6.516;2022-07-23T09:27:49;1.10;;;1.00;;
60722;SDS011;46574;52.818;6.516;2022-07-23T09:30:29;2.00;;;0.98;;
60722;SDS011;46574;52.818;6.516;2022-07-23T09:33:12;1.80;;;1.00;;
60722;SDS011;46574;52.818;6.516;2022-07-23T09:35:44;1.52;;;0.90;;
60722;SDS011;46574;52.818;6.516;2022-07-23T09:38:21;1.88;;;1.00;;
60722;SDS011;46574;52.818;6.516;2022-07-23T09:41:07;2.03;;;0.80;;
60722;SDS011;46574;52.818;6.516;2022-07-23T09:43:34;1.00;;;0.98;;
60722;SDS011;46574;52.818;6.516;2022-07-23T09:46:18;1.50;;;0.70;;
60722;SDS011;46574;52.818;6.516;2022-07-23T09:48:46;1.48;;;0.70;;
60722;SDS011;46574;52.818;6.516;2022-07-23T09:51:12;1.30;;;0.90;;
60722;SDS011;46574;52.818;6.516;2022-07-23T09:53:58;1.17;;;1.08;;
60722;SDS011;46574;52.818;6.516;2022-07-23T09:56:24;1.00;;;0.90;;
60722;SDS011;46574;52.818;6.516;2022-07-23T09:58:52;1.88;;;0.70;;
60722;SDS011;46574;52.818;6.516;2022-07-23T10:01:30;2.17;;;1.00;;
60722;SDS011;46574;52.818;6.516;2022-07-23T10:03:56;1.67;;;0.75;;
60722;SDS011;46574;52.818;6.516;2022-07-23T10:06:23;0.95;;;0.77;;
60722;SDS011;46574;52.818;6.516;2022-07-23T10:08:49;2.58;;;0.85;;
60722;SDS011;46574;52.818;6.516;2022-07-23T10:11:16;1.58;;;1.00;;
60722;SDS011;46574;52.818;6.516;2022-07-23T10:13:42;1.10;;;1.02;;
60722;SDS011;46574;52.818;6.516;2022-07-23T10:16:19;1.13;;;0.70;;
60722;SDS011;46574;52.818;6.516;2022-07-23T10:18:46;0.95;;;0.90;;
60722;SDS011;46574;52.818;6.516;2022-07-23T10:21:12;1.05;;;0.90;;
60722;SDS011;46574;52.818;6.516;2022-07-23T10:23:47;1.15;;;0.90;;
60722;SDS011;46574;52.818;6.516;2022-07-23T10:26:41;2.15;;;0.93;;
60722;SDS011;46574;52.818;6.516;2022-07-23T10:29:22;2.05;;;1.00;;
60722;SDS011;46574;52.818;6.516;2022-07-23T10:32:20;1.00;;;0.90;;
60722;SDS011;46574;52.818;6.516;2022-07-23T10:38:02;1.90;;;1.13;;
60722;SDS011;46574;52.818;6.516;2022-07-23T10:40:36;1.42;;;0.90;;
60722;SDS011;46574;52.818;6.516;2022-07-23T10:43:02;1.20;;;1.10;;
60722;SDS011;46574;52.818;6.516;2022-07-23T10:45:40;1.08;;;0.98;;
60722;SDS011;46574;52.818;6.516;2022-07-23T10:48:11;1.33;;;1.00;;
60722;SDS011;46574;52.818;6.516;2022-07-23T10:51:05;1.00;;;1.00;;
60722;SDS011;46574;52.818;6.516;2022-07-23T10:56:16;2.23;;;1.13;;
60722;SDS011;46574;52.818;6.516;2022-07-23T10:59:05;1.20;;;1.10;;
60722;SDS011;46574;52.818;6.516;2022-07-23T11:04:01;2.00;;;1.45;;
60722;SDS011;46574;52.818;6.516;2022-07-23T11:12:37;2.83;;;1.75;;
60722;SDS011;46574;52.818;6.516;2022-07-23T11:15:03;1.50;;;1.40;;
60722;SDS011;46574;52.818;6.516;2022-07-23T11:17:38;1.50;;;1.40;;
60722;SDS011;46574;52.818;6.516;2022-07-23T11:20:17;2.65;;;1.50;;
60722;SDS011;46574;52.818;6.516;2022-07-23T11:22:48;1.63;;;1.23;;
60722;SDS011;46574;52.818;6.516;2022-07-23T11:27:48;1.38;;;1.27;;
60722;SDS011;46574;52.818;6.516;2022-07-23T11:32:54;1.52;;;1.42;;
60722;SDS011;46574;52.818;6.516;2022-07-23T11:35:43;2.25;;;1.38;;
60722;SDS011;46574;52.818;6.516;2022-07-23T11:38:21;2.47;;;1.60;;
60722;SDS011;46574;52.818;6.516;2022-07-23T11:40:52;1.92;;;1.83;;
60722;SDS011;46574;52.818;6.516;2022-07-23T11:43:20;1.77;;;1.27;;
60722;SDS011;46574;52.818;6.516;2022-07-23T11:45:48;2.15;;;1.70;;
60722;SDS011;46574;52.818;6.516;2022-07-23T11:48:26;2.38;;;1.65;;
60722;SDS011;46574;52.818;6.516;2022-07-23T11:50:54;2.55;;;1.80;;
60722;SDS011;46574;52.818;6.516;2022-07-23T11:53:22;1.92;;;1.80;;
60722;SDS011;46574;52.818;6.516;2022-07-23T11:56:02;3.08;;;1.80;;
60722;SDS011;46574;52.818;6.516;2022-07-23T11:58:29;2.88;;;1.80;;
60722;SDS011;46574;52.818;6.516;2022-07-23T12:00:55;1.92;;;1.73;;
60722;SDS011;46574;52.818;6.516;2022-07-23T12:03:20;2.20;;;2.00;;
60722;SDS011;46574;52.818;6.516;2022-07-23T12:05:46;2.15;;;1.77;;
60722;SDS011;46574;52.818;6.516;2022-07-23T12:08:12;2.55;;;2.00;;
60722;SDS011;46574;52.818;6.516;2022-07-23T12:10:41;1.75;;;1.65;;
60722;SDS011;46574;52.818;6.516;2022-07-23T12:13:13;1.77;;;1.67;;
60722;SDS011;46574;52.818;6.516;2022-07-23T12:15:44;2.03;;;1.83;;
60722;SDS011;46574;52.818;6.516;2022-07-23T12:18:16;2.03;;;1.83;;
60722;SDS011;46574;52.818;6.516;2022-07-23T12:20:47;2.67;;;1.70;;
60722;SDS011;46574;52.818;6.516;2022-07-23T12:25:42;2.60;;;2.40;;
60722;SDS011;46574;52.818;6.516;2022-07-23T12:28:16;2.28;;;2.13;;
60722;SDS011;46574;52.818;6.516;2022-07-23T12:30:58;2.45;;;2.00;;
60722;SDS011;46574;52.818;6.516;2022-07-23T12:33:38;3.42;;;2.20;;
60722;SDS011;46574;52.818;6.516;2022-07-23T12:36:07;1.90;;;1.80;;
60722;SDS011;46574;52.818;6.516;2022-07-23T12:38:38;2.10;;;1.92;;
60722;SDS011;46574;52.818;6.516;2022-07-23T12:41:08;3.03;;;2.08;;
60722;SDS011;46574;52.818;6.516;2022-07-23T12:43:35;3.25;;;2.25;;
60722;SDS011;46574;52.818;6.516;2022-07-23T12:51:38;1.70;;;1.60;;
60722;SDS011;46574;52.818;6.516;2022-07-23T12:54:05;2.33;;;2.08;;
60722;SDS011;46574;52.818;6.516;2022-07-23T12:56:33;1.98;;;1.77;;
60722;SDS011;46574;52.818;6.516;2022-07-23T13:01:32;2.13;;;1.92;;
60722;SDS011;46574;52.818;6.516;2022-07-23T13:04:04;2.35;;;2.15;;
60722;SDS011;46574;52.818;6.516;2022-07-23T13:06:34;2.72;;;2.15;;
60722;SDS011;46574;52.818;6.516;2022-07-23T13:09:04;2.10;;;1.90;;
60722;SDS011;46574;52.818;6.516;2022-07-23T13:11:33;3.05;;;2.45;;
60722;SDS011;46574;52.818;6.516;2022-07-23T13:13:59;2.65;;;2.10;;
60722;SDS011;46574;52.818;6.516;2022-07-23T13:16:26;3.17;;;2.30;;
60722;SDS011;46574;52.818;6.516;2022-07-23T13:18:52;2.72;;;2.20;;
60722;SDS011;46574;52.818;6.516;2022-07-23T13:21:18;2.35;;;2.15;;
60722;SDS011;46574;52.818;6.516;2022-07-23T13:23:44;2.90;;;2.15;;
60722;SDS011;46574;52.818;6.516;2022-07-23T13:26:10;2.30;;;2.10;;
60722;SDS011;46574;52.818;6.516;2022-07-23T13:28:35;2.28;;;2.08;;
60722;SDS011;46574;52.818;6.516;2022-07-23T13:31:01;2.35;;;2.15;;
60722;SDS011;46574;52.818;6.516;2022-07-23T13:33:27;2.33;;;2.10;;
60722;SDS011;46574;52.818;6.516;2022-07-23T13:35:53;2.53;;;2.33;;
60722;SDS011;46574;52.818;6.516;2022-07-23T13:38:19;2.17;;;2.00;;
60722;SDS011;46574;52.818;6.516;2022-07-23T13:40:46;2.90;;;2.20;;
60722;SDS011;46574;52.818;6.516;2022-07-23T13:43:17;1.70;;;1.60;;
60722;SDS011;46574;52.818;6.516;2022-07-23T13:45:44;1.95;;;1.77;;
60722;SDS011;46574;52.818;6.516;2022-07-23T13:48:11;2.10;;;1.90;;
60722;SDS011;46574;52.818;6.516;2022-07-23T13:50:38;2.30;;;2.10;;
60722;SDS011;46574;52.818;6.516;2022-07-23T13:53:12;2.55;;;2.20;;
60722;SDS011;46574;52.818;6.516;2022-07-23T13:55:40;1.90;;;1.80;;
60722;SDS011;46574;52.818;6.516;2022-07-23T13:58:07;3.03;;;1.92;;
60722;SDS011;46574;52.818;6.516;2022-07-23T14:00:34;3.13;;;2.28;;
60722;SDS011;46574;52.818;6.516;2022-07-23T14:03:01;2.47;;;1.92;;
60722;SDS011;46574;52.818;6.516;2022-07-23T14:05:27;1.65;;;1.55;;
60722;SDS011;46574;52.818;6.516;2022-07-23T14:07:53;1.98;;;1.80;;
60722;SDS011;46574;52.818;6.516;2022-07-23T14:10:20;2.88;;;2.00;;
60722;SDS011;46574;52.818;6.516;2022-07-23T14:12:47;3.10;;;1.88;;
60722;SDS011;46574;52.818;6.516;2022-07-23T14:15:14;2.85;;;1.98;;
60722;SDS011;46574;52.818;6.516;2022-07-23T14:17:41;2.00;;;1.80;;
60722;SDS011;46574;52.818;6.516;2022-07-23T14:20:09;2.03;;;1.83;;
60722;SDS011;46574;52.818;6.516;2022-07-23T14:22:36;2.17;;;2.08;;
60722;SDS011;46574;52.818;6.516;2022-07-23T14:25:03;2.45;;;1.83;;
60722;SDS011;46574;52.818;6.516;2022-07-23T14:27:29;1.80;;;1.63;;
60722;SDS011;46574;52.818;6.516;2022-07-23T14:29:55;1.70;;;1.60;;
60722;SDS011;46574;52.818;6.516;2022-07-23T14:32:21;1.67;;;1.58;;
60722;SDS011;46574;52.818;6.516;2022-07-23T14:34:47;1.95;;;1.63;;
60722;SDS011;46574;52.818;6.516;2022-07-23T14:37:13;2.85;;;1.80;;
60722;SDS011;46574;52.818;6.516;2022-07-23T14:39:40;1.85;;;1.75;;
60722;SDS011;46574;52.818;6.516;2022-07-23T14:42:07;1.40;;;1.30;;
60722;SDS011;46574;52.818;6.516;2022-07-23T14:44:33;2.10;;;1.90;;
60722;SDS011;46574;52.818;6.516;2022-07-23T14:47:00;2.13;;;2.00;;
60722;SDS011;46574;52.818;6.516;2022-07-23T14:49:28;1.70;;;1.60;;
60722;SDS011;46574;52.818;6.516;2022-07-23T14:51:53;1.70;;;1.60;;
60722;SDS011;46574;52.818;6.516;2022-07-23T14:54:19;3.88;;;1.92;;
60722;SDS011;46574;52.818;6.516;2022-07-23T14:56:45;2.13;;;1.70;;
60722;SDS011;46574;52.818;6.516;2022-07-23T14:59:11;1.52;;;1.33;;
60722;SDS011;46574;52.818;6.516;2022-07-23T15:01:37;2.08;;;1.63;;
60722;SDS011;46574;52.818;6.516;2022-07-23T15:04:03;2.47;;;1.90;;
60722;SDS011;46574;52.818;6.516;2022-07-23T15:06:30;1.55;;;1.45;;
60722;SDS011;46574;52.818;6.516;2022-07-23T15:08:55;1.98;;;1.27;;
60722;SDS011;46574;52.818;6.516;2022-07-23T15:11:21;1.77;;;1.60;;
60722;SDS011;46574;52.818;6.516;2022-07-23T15:13:47;2.35;;;1.67;;
60722;SDS011;46574;52.818;6.516;2022-07-23T15:16:12;2.30;;;1.55;;
60722;SDS011;46574;52.818;6.516;2022-07-23T15:18:38;2.00;;;1.90;;
60722;SDS011;46574;52.818;6.516;2022-07-23T15:21:04;1.90;;;1.80;;
60722;SDS011;46574;52.818;6.516;2022-07-23T15:23:30;2.00;;;1.90;;